Time;durP1;ratioP1;P1;durP2;ratioP2;P2;SDS_P1;SDS_P2;PMS_P1;PMS_P2;Temp;Humidity;BMP_temperature;BMP_pressure;BME280_temperature;BME280_humidity;BME280_pressure;Samples;Min_cycle;Max_cycle;Signal;HPM_P1;HPM_P2
2022/11/24 00:01:33;;;;;;;0.60;0.60;;;;;;;;;;1806149;78;26387;-58
2022/11/24 00:04:02;;;;;;;0.60;0.60;;;;;;;;;;1805869;78;26411;-57
2022/11/24 00:06:30;;;;;;;0.60;0.60;;;;;;;;;;1811975;78;26744;-58
2022/11/24 00:08:58;;;;;;;0.60;0.60;;;;;;;;;;1813797;78;26305;-58
2022/11/24 00:11:26;;;;;;;0.50;0.50;;;;;;;;;;1812870;78;26763;-59
2022/11/24 00:13:54;;;;;;;0.93;0.60;;;;;;;;;;1805288;77;26324;-59
2022/11/24 00:16:32;;;;;;;0.82;0.62;;;;;;;;;;1812384;77;26546;-58
2022/11/24 00:19:00;;;;;;;0.75;0.50;;;;;;;;;;1813207;77;26793;-58
2022/11/24 00:21:28;;;;;;;0.75;0.65;;;;;;;;;;1806024;78;26321;-58
2022/11/24 00:23:55;;;;;;;0.50;0.50;;;;;;;;;;1808471;78;26265;-58
2022/11/24 00:26:25;;;;;;;0.60;0.60;;;;;;;;;;1816946;78;26254;-59
2022/11/24 00:28:53;;;;;;;0.53;0.50;;;;;;;;;;1823078;78;26282;-58
2022/11/24 00:31:24;;;;;;;0.68;0.68;;;;;;;;;;1829872;77;26935;-58
2022/11/24 00:33:53;;;;;;;0.42;0.42;;;;;;;;;;1829656;77;26306;-58
2022/11/24 00:36:21;;;;;;;0.60;0.60;;;;;;;;;;1828422;77;26250;-58
2022/11/24 00:38:50;;;;;;;0.53;0.53;;;;;;;;;;1845724;77;26937;-59
2022/11/24 00:41:17;;;;;;;0.50;0.50;;;;;;;;;;1830250;77;27743;-58
2022/11/24 00:43:44;;;;;;;0.40;0.40;;;;;;;;;;1828322;77;26857;-58
2022/11/24 00:46:12;;;;;;;0.70;0.70;;;;;;;;;;1829956;78;26677;-58
2022/11/24 00:48:39;;;;;;;0.53;0.53;;;;;;;;;;1830291;77;26274;-58
2022/11/24 00:51:08;;;;;;;0.55;0.55;;;;;;;;;;1840358;77;26256;-58
2022/11/24 00:53:35;;;;;;;0.60;0.60;;;;;;;;;;1826043;77;26325;-58
2022/11/24 00:56:03;;;;;;;0.85;0.75;;;;;;;;;;1830727;77;26298;-58
2022/11/24 00:58:31;;;;;;;2.22;0.57;;;;;;;;;;1825692;77;27412;-58
2022/11/24 01:01:03;;;;;;;1.80;0.60;;;;;;;;;;1802796;77;26257;-58
2022/11/24 01:03:30;;;;;;;0.60;0.60;;;;;;;;;;1809162;77;26411;-58
2022/11/24 01:05:59;;;;;;;0.60;0.50;;;;;;;;;;1804538;78;26284;-58
2022/11/24 01:08:26;;;;;;;0.60;0.60;;;;;;;;;;1817534;78;26322;-58
2022/11/24 01:10:54;;;;;;;1.17;0.60;;;;;;;;;;1811176;77;26336;-59
2022/11/24 01:13:21;;;;;;;0.78;0.70;;;;;;;;;;1812624;77;26291;-58
2022/11/24 01:15:48;;;;;;;0.50;0.50;;;;;;;;;;1816685;78;26264;-58
2022/11/24 01:18:15;;;;;;;0.50;0.50;;;;;;;;;;1812230;77;26263;-58
2022/11/24 01:20:42;;;;;;;0.60;0.60;;;;;;;;;;1817123;77;26311;-58
2022/11/24 01:23:10;;;;;;;0.50;0.50;;;;;;;;;;1823413;77;26419;-58
2022/11/24 01:25:39;;;;;;;0.50;0.50;;;;;;;;;;1811292;78;26343;-58
2022/11/24 01:28:06;;;;;;;0.68;0.60;;;;;;;;;;1815796;78;26293;-59
2022/11/24 01:30:33;;;;;;;0.60;0.60;;;;;;;;;;1807697;77;26813;-59
2022/11/24 01:33:01;;;;;;;0.78;0.78;;;;;;;;;;1808994;78;26696;-58
2022/11/24 01:35:28;;;;;;;0.60;0.60;;;;;;;;;;1814668;77;26347;-58
2022/11/24 01:37:55;;;;;;;0.60;0.60;;;;;;;;;;1816659;77;26294;-58
2022/11/24 01:40:23;;;;;;;0.57;0.50;;;;;;;;;;1826848;78;26283;-58
2022/11/24 01:42:51;;;;;;;0.50;0.50;;;;;;;;;;1826943;78;26691;-57
2022/11/24 01:45:39;;;;;;;0.57;0.57;;;;;;;;;;1819904;78;27124;-57
2022/11/24 01:48:05;;;;;;;0.60;0.60;;;;;;;;;;1821825;78;26296;-59
2022/11/24 01:50:33;;;;;;;0.68;0.68;;;;;;;;;;1824228;78;26351;-58
2022/11/24 01:53:00;;;;;;;0.60;0.60;;;;;;;;;;1826931;78;26274;-58
2022/11/24 01:55:29;;;;;;;1.07;0.60;;;;;;;;;;1826852;78;26286;-58
2022/11/24 01:58:01;;;;;;;0.70;0.70;;;;;;;;;;1824080;78;26267;-58
2022/11/24 02:00:28;;;;;;;0.70;0.70;;;;;;;;;;1826678;78;27282;-58
2022/11/24 02:02:57;;;;;;;0.60;0.60;;;;;;;;;;1824205;78;27208;-59
2022/11/24 02:05:26;;;;;;;0.50;0.50;;;;;;;;;;1827156;78;26262;-58
2022/11/24 02:07:55;;;;;;;0.60;0.60;;;;;;;;;;1827151;78;26388;-56
2022/11/24 02:10:22;;;;;;;0.50;0.50;;;;;;;;;;1830137;78;26866;-58
2022/11/24 02:12:51;;;;;;;0.80;0.80;;;;;;;;;;1827098;77;26285;-58
2022/11/24 02:15:19;;;;;;;0.60;0.60;;;;;;;;;;1823047;77;26332;-57
2022/11/24 02:17:46;;;;;;;0.60;0.60;;;;;;;;;;1815668;78;26739;-57
2022/11/24 02:20:15;;;;;;;0.45;0.45;;;;;;;;;;1817335;77;26345;-58
2022/11/24 02:22:47;;;;;;;0.80;0.80;;;;;;;;;;1815057;78;26876;-58
2022/11/24 02:25:31;;;;;;;0.70;0.70;;;;;;;;;;1809208;78;27360;-58
2022/11/24 02:28:00;;;;;;;0.70;0.70;;;;;;;;;;1735410;81;27713;-58
2022/11/24 02:30:27;;;;;;;0.70;0.70;;;;;;;;;;1802033;78;26372;-59
2022/11/24 02:32:55;;;;;;;0.80;0.80;;;;;;;;;;1828713;77;26825;-58
2022/11/24 02:35:22;;;;;;;0.60;0.60;;;;;;;;;;1828468;77;26262;-58
2022/11/24 02:37:49;;;;;;;0.60;0.60;;;;;;;;;;1830226;78;26262;-58
2022/11/24 02:40:18;;;;;;;0.68;0.68;;;;;;;;;;1830433;77;26792;-58
2022/11/24 02:42:46;;;;;;;0.60;0.60;;;;;;;;;;1822414;77;26282;-58
2022/11/24 02:45:15;;;;;;;0.70;0.70;;;;;;;;;;1829313;77;26271;-58
2022/11/24 02:47:42;;;;;;;0.60;0.60;;;;;;;;;;1829184;77;26323;-58
2022/11/24 02:50:09;;;;;;;0.70;0.70;;;;;;;;;;1828917;77;26275;-57
2022/11/24 02:52:37;;;;;;;0.70;0.70;;;;;;;;;;1819528;77;26297;-58
2022/11/24 02:55:04;;;;;;;0.70;0.70;;;;;;;;;;1805766;78;26359;-58
2022/11/24 02:57:31;;;;;;;0.70;0.70;;;;;;;;;;1805231;77;26367;-58
2022/11/24 02:59:59;;;;;;;0.80;0.80;;;;;;;;;;1807609;77;26331;-58
2022/11/24 03:02:26;;;;;;;0.70;0.70;;;;;;;;;;1810358;77;26395;-58
2022/11/24 03:04:53;;;;;;;0.60;0.60;;;;;;;;;;1804910;78;26335;-58
2022/11/24 03:07:21;;;;;;;0.70;0.70;;;;;;;;;;1810794;78;26300;-58
2022/11/24 03:09:49;;;;;;;0.70;0.70;;;;;;;;;;1793275;78;26350;-59
2022/11/24 03:12:16;;;;;;;0.60;0.60;;;;;;;;;;1784928;78;26303;-58
2022/11/24 03:14:43;;;;;;;0.90;0.90;;;;;;;;;;1781828;78;26564;-58
2022/11/24 03:17:11;;;;;;;0.60;0.60;;;;;;;;;;1771684;78;26347;-58
2022/11/24 03:19:38;;;;;;;0.70;0.70;;;;;;;;;;1779988;78;26343;-59
2022/11/24 03:22:06;;;;;;;0.70;0.70;;;;;;;;;;1778993;78;26743;-58
2022/11/24 03:24:33;;;;;;;0.98;0.98;;;;;;;;;;1777293;78;26354;-59
2022/11/24 03:27:00;;;;;;;0.70;0.70;;;;;;;;;;1785060;78;26301;-58
2022/11/24 03:29:27;;;;;;;0.65;0.65;;;;;;;;;;1775208;78;26301;-59
2022/11/24 03:31:55;;;;;;;0.60;0.60;;;;;;;;;;1776284;78;26268;-58
2022/11/24 03:34:22;;;;;;;0.70;0.70;;;;;;;;;;1781965;78;26287;-58
2022/11/24 03:36:49;;;;;;;0.70;0.70;;;;;;;;;;1783334;78;26437;-58
2022/11/24 03:39:17;;;;;;;0.72;0.72;;;;;;;;;;1784499;78;26756;-58
2022/11/24 03:41:44;;;;;;;0.70;0.70;;;;;;;;;;1777699;78;26836;-58
2022/11/24 03:44:11;;;;;;;0.82;0.82;;;;;;;;;;1778809;78;26325;-58
2022/11/24 03:46:38;;;;;;;0.70;0.70;;;;;;;;;;1779263;78;26378;-57
2022/11/24 03:49:06;;;;;;;0.72;0.72;;;;;;;;;;1773009;78;26284;-57
2022/11/24 03:51:33;;;;;;;0.78;0.78;;;;;;;;;;1784269;78;26269;-58
2022/11/24 03:54:00;;;;;;;0.70;0.70;;;;;;;;;;1785031;78;26292;-57
2022/11/24 03:56:27;;;;;;;0.70;0.70;;;;;;;;;;1774503;78;26362;-57
2022/11/24 03:58:55;;;;;;;0.60;0.60;;;;;;;;;;1776328;78;26804;-58
2022/11/24 04:01:22;;;;;;;0.70;0.70;;;;;;;;;;1781424;78;26392;-57
2022/11/24 04:03:50;;;;;;;0.75;0.60;;;;;;;;;;1779667;78;26303;-58
2022/11/24 04:06:17;;;;;;;0.70;0.70;;;;;;;;;;1776872;78;27097;-57
2022/11/24 04:08:45;;;;;;;0.75;0.75;;;;;;;;;;1786654;78;26795;-57
2022/11/24 04:12:42;;;;;;;1.00;1.00;;;;;;;;;;1818083;77;26306;-57
2022/11/24 04:13:42;;;;;;;0.85;0.85;;;;;;;;;;1805789;78;26340;-58
2022/11/24 04:16:09;;;;;;;0.80;0.80;;;;;;;;;;1815245;77;26389;-58
2022/11/24 04:18:37;;;;;;;1.50;0.70;;;;;;;;;;1811471;77;26813;-57
2022/11/24 04:21:04;;;;;;;1.55;0.90;;;;;;;;;;1802035;78;26343;-57
2022/11/24 04:23:33;;;;;;;0.70;0.70;;;;;;;;;;1809499;78;26344;-57
2022/11/24 04:26:01;;;;;;;0.80;0.80;;;;;;;;;;1818188;77;26288;-58
2022/11/24 04:28:28;;;;;;;0.90;0.90;;;;;;;;;;1817695;77;26292;-58
2022/11/24 04:30:57;;;;;;;0.80;0.80;;;;;;;;;;1813392;78;26344;-57
2022/11/24 04:33:24;;;;;;;0.70;0.70;;;;;;;;;;1811752;78;26299;-57
2022/11/24 04:35:52;;;;;;;0.75;0.72;;;;;;;;;;1803397;78;26728;-58
2022/11/24 04:38:20;;;;;;;0.90;0.90;;;;;;;;;;1814931;78;26300;-56
2022/11/24 04:40:47;;;;;;;0.85;0.85;;;;;;;;;;1808997;78;26332;-57
2022/11/24 04:43:17;;;;;;;0.75;0.75;;;;;;;;;;1814286;78;26285;-58
2022/11/24 04:45:43;;;;;;;0.60;0.60;;;;;;;;;;1810171;77;27366;-57
2022/11/24 04:48:10;;;;;;;0.85;0.85;;;;;;;;;;1830365;78;26348;-57
2022/11/24 04:50:38;;;;;;;0.80;0.80;;;;;;;;;;1836024;77;26365;-56
2022/11/24 04:53:06;;;;;;;0.80;0.80;;;;;;;;;;1830688;77;26306;-57
2022/11/24 04:55:33;;;;;;;0.70;0.70;;;;;;;;;;1825325;77;26282;-57
2022/11/24 04:58:01;;;;;;;0.75;0.75;;;;;;;;;;1829102;77;26325;-56
2022/11/24 05:00:28;;;;;;;0.90;0.90;;;;;;;;;;1816976;77;26398;-55
2022/11/24 05:02:55;;;;;;;0.70;0.70;;;;;;;;;;1823064;77;26305;-57
2022/11/24 05:05:23;;;;;;;0.88;0.88;;;;;;;;;;1825153;77;26363;-57
2022/11/24 05:07:50;;;;;;;0.82;0.82;;;;;;;;;;1833349;77;26274;-57
2022/11/24 05:10:36;;;;;;;0.90;0.90;;;;;;;;;;1816498;77;26354;-57
2022/11/24 05:13:05;;;;;;;0.82;0.82;;;;;;;;;;1827392;77;26691;-57
2022/11/24 05:15:33;;;;;;;0.80;0.80;;;;;;;;;;1822902;77;26355;-57
2022/11/24 05:18:01;;;;;;;0.88;0.88;;;;;;;;;;1814462;78;26549;-59
2022/11/24 05:20:29;;;;;;;0.80;0.80;;;;;;;;;;1810298;78;26334;-60
2022/11/24 05:22:57;;;;;;;0.80;0.80;;;;;;;;;;1830480;77;26274;-58
2022/11/24 05:25:25;;;;;;;0.93;0.93;;;;;;;;;;1829854;77;26352;-58
2022/11/24 05:27:52;;;;;;;0.80;0.80;;;;;;;;;;1821305;77;26407;-58
2022/11/24 05:30:19;;;;;;;0.90;0.90;;;;;;;;;;1804476;77;26304;-58
2022/11/24 05:32:46;;;;;;;0.80;0.80;;;;;;;;;;1806998;77;26277;-58
2022/11/24 05:35:14;;;;;;;0.80;0.80;;;;;;;;;;1819544;78;26270;-58
2022/11/24 05:37:41;;;;;;;0.80;0.80;;;;;;;;;;1815797;77;26298;-58
2022/11/24 05:40:09;;;;;;;1.00;1.00;;;;;;;;;;1820560;78;26412;-58
2022/11/24 05:42:42;;;;;;;0.70;0.70;;;;;;;;;;1820182;78;27651;-59
2022/11/24 05:45:13;;;;;;;0.80;0.80;;;;;;;;;;1815156;78;26682;-58
2022/11/24 05:47:41;;;;;;;2.70;0.75;;;;;;;;;;1824570;78;26276;-58
2022/11/24 05:50:09;;;;;;;0.80;0.80;;;;;;;;;;1819041;78;27027;-58
2022/11/24 05:52:37;;;;;;;0.82;0.82;;;;;;;;;;1820345;77;26359;-59
2022/11/24 05:55:05;;;;;;;0.80;0.80;;;;;;;;;;1817566;78;26239;-58
2022/11/24 05:57:33;;;;;;;0.80;0.80;;;;;;;;;;1816033;77;26282;-57
2022/11/24 06:00:00;;;;;;;0.80;0.80;;;;;;;;;;1809653;78;26293;-57
2022/11/24 06:02:28;;;;;;;0.70;0.70;;;;;;;;;;1811220;77;26771;-58
2022/11/24 06:04:55;;;;;;;0.75;0.75;;;;;;;;;;1811373;78;26278;-55
2022/11/24 06:07:22;;;;;;;0.80;0.80;;;;;;;;;;1809849;78;26208;-57
2022/11/24 06:09:49;;;;;;;0.90;0.90;;;;;;;;;;1814954;78;26663;-56
2022/11/24 06:12:17;;;;;;;0.70;0.70;;;;;;;;;;1818306;77;26368;-58
2022/11/24 06:14:44;;;;;;;0.80;0.80;;;;;;;;;;1822493;78;26400;-58
2022/11/24 06:17:12;;;;;;;0.72;0.72;;;;;;;;;;1821145;77;26275;-57
2022/11/24 06:19:39;;;;;;;0.75;0.75;;;;;;;;;;1819356;78;26740;-57
2022/11/24 06:22:06;;;;;;;1.10;0.80;;;;;;;;;;1820432;77;26305;-58
2022/11/24 06:24:34;;;;;;;0.70;0.70;;;;;;;;;;1826346;77;26282;-57
2022/11/24 06:27:01;;;;;;;0.90;0.90;;;;;;;;;;1825228;77;26368;-57
2022/11/24 06:29:28;;;;;;;0.95;0.90;;;;;;;;;;1827108;78;26341;-56
2022/11/24 06:31:55;;;;;;;0.80;0.80;;;;;;;;;;1822975;77;26449;-57
2022/11/24 06:34:23;;;;;;;2.25;0.90;;;;;;;;;;1829163;77;26368;-57
2022/11/24 06:36:50;;;;;;;1.02;1.00;;;;;;;;;;1823404;77;26419;-59
2022/11/24 06:39:17;;;;;;;1.00;1.00;;;;;;;;;;1825680;78;26348;-64
2022/11/24 06:41:45;;;;;;;3.10;1.02;;;;;;;;;;1825629;78;27038;-67
2022/11/24 06:44:12;;;;;;;0.80;0.80;;;;;;;;;;1823324;77;26655;-64
2022/11/24 06:46:39;;;;;;;3.87;1.17;;;;;;;;;;1818090;78;26325;-67
2022/11/24 06:49:07;;;;;;;0.90;0.90;;;;;;;;;;1820893;78;26568;-66
2022/11/24 06:51:34;;;;;;;1.02;0.90;;;;;;;;;;1826635;77;26813;-68
2022/11/24 06:54:02;;;;;;;1.07;1.05;;;;;;;;;;1826335;77;26592;-66
2022/11/24 06:56:30;;;;;;;6.47;1.30;;;;;;;;;;1815124;77;26308;-67
2022/11/24 06:58:57;;;;;;;2.87;1.00;;;;;;;;;;1813858;78;26631;-66
2022/11/24 07:01:25;;;;;;;4.12;1.10;;;;;;;;;;1818369;78;26342;-66
2022/11/24 07:03:53;;;;;;;1.98;0.90;;;;;;;;;;1825246;77;26314;-69
2022/11/24 07:06:21;;;;;;;2.83;1.27;;;;;;;;;;1827557;78;26274;-66
2022/11/24 07:08:49;;;;;;;3.08;1.15;;;;;;;;;;1825346;78;26274;-68
2022/11/24 07:11:17;;;;;;;3.27;1.10;;;;;;;;;;1829369;78;26414;-65
2022/11/24 07:13:45;;;;;;;1.05;1.00;;;;;;;;;;1830640;77;26258;-67
2022/11/24 07:16:20;;;;;;;3.02;1.20;;;;;;;;;;1828355;78;26382;-67
2022/11/24 07:18:48;;;;;;;1.75;1.10;;;;;;;;;;1828967;77;26333;-69
2022/11/24 07:21:16;;;;;;;2.02;1.00;;;;;;;;;;1829772;78;26752;-67
2022/11/24 07:23:44;;;;;;;1.22;1.12;;;;;;;;;;1829872;78;26271;-68
2022/11/24 07:26:11;;;;;;;1.12;0.95;;;;;;;;;;1833137;77;26782;-66
2022/11/24 07:28:39;;;;;;;1.17;1.17;;;;;;;;;;1829552;77;26336;-68
2022/11/24 07:31:07;;;;;;;1.62;0.90;;;;;;;;;;1830209;78;26309;-69
2022/11/24 07:33:34;;;;;;;1.17;0.90;;;;;;;;;;1828147;77;26383;-68
2022/11/24 07:36:02;;;;;;;1.17;1.05;;;;;;;;;;1822769;78;26360;-68
2022/11/24 07:38:30;;;;;;;1.77;1.00;;;;;;;;;;1829905;77;26303;-68
2022/11/24 07:41:01;;;;;;;1.00;1.00;;;;;;;;;;1828069;77;26295;-65
2022/11/24 07:43:30;;;;;;;0.90;0.90;;;;;;;;;;1822048;78;26746;-68
2022/11/24 07:45:57;;;;;;;0.98;0.98;;;;;;;;;;1830245;78;26828;-65
2022/11/24 07:48:24;;;;;;;2.42;0.93;;;;;;;;;;1828832;77;26585;-67
2022/11/24 07:50:52;;;;;;;0.93;0.85;;;;;;;;;;1826159;77;26277;-68
2022/11/24 07:53:19;;;;;;;1.17;1.00;;;;;;;;;;1816479;78;26360;-67
2022/11/24 07:55:59;;;;;;;1.50;1.00;;;;;;;;;;1831252;78;26723;-68
2022/11/24 07:58:27;;;;;;;0.90;0.90;;;;;;;;;;1830855;77;26755;-67
2022/11/24 08:00:55;;;;;;;1.00;1.00;;;;;;;;;;1827768;77;26310;-66
2022/11/24 08:03:22;;;;;;;0.80;0.80;;;;;;;;;;1821376;77;26316;-62
2022/11/24 08:05:53;;;;;;;0.90;0.90;;;;;;;;;;1822329;77;26273;-65
2022/11/24 08:08:20;;;;;;;0.80;0.80;;;;;;;;;;1828453;78;26798;-63
2022/11/24 08:10:48;;;;;;;0.98;0.90;;;;;;;;;;1829943;77;26366;-64
2022/11/24 08:13:15;;;;;;;0.93;0.93;;;;;;;;;;1821505;78;26263;-66
2022/11/24 08:15:43;;;;;;;0.80;0.80;;;;;;;;;;1829117;77;26349;-64
2022/11/24 08:18:10;;;;;;;0.82;0.82;;;;;;;;;;1831142;77;26242;-62
2022/11/24 08:20:37;;;;;;;0.85;0.85;;;;;;;;;;1830222;77;26294;-64
2022/11/24 08:23:05;;;;;;;0.90;0.90;;;;;;;;;;1829743;78;26283;-66
2022/11/24 08:25:32;;;;;;;0.90;0.90;;;;;;;;;;1831285;77;26239;-66
2022/11/24 08:28:00;;;;;;;0.90;0.90;;;;;;;;;;1829918;77;26222;-65
2022/11/24 08:30:28;;;;;;;0.80;0.80;;;;;;;;;;1830889;78;26332;-65
2022/11/24 08:32:55;;;;;;;0.90;0.90;;;;;;;;;;1830270;78;26217;-67
2022/11/24 08:35:22;;;;;;;0.88;0.88;;;;;;;;;;1830121;77;26266;-66
2022/11/24 08:37:50;;;;;;;1.00;0.90;;;;;;;;;;1830739;77;26735;-67
2022/11/24 08:40:17;;;;;;;0.90;0.90;;;;;;;;;;1829646;78;26302;-67
2022/11/24 08:42:44;;;;;;;0.80;0.80;;;;;;;;;;1827372;77;26749;-66
2022/11/24 08:45:12;;;;;;;0.82;0.78;;;;;;;;;;1830068;78;26302;-66
2022/11/24 08:47:39;;;;;;;0.90;0.90;;;;;;;;;;1829769;77;26671;-67
2022/11/24 08:50:07;;;;;;;0.80;0.80;;;;;;;;;;1828334;77;26275;-64
2022/11/24 08:52:34;;;;;;;0.80;0.80;;;;;;;;;;1828928;77;26290;-66
2022/11/24 08:55:01;;;;;;;0.90;0.90;;;;;;;;;;1829247;78;26380;-62
2022/11/24 08:57:29;;;;;;;0.90;0.90;;;;;;;;;;1828580;78;26738;-66
2022/11/24 08:59:56;;;;;;;0.80;0.80;;;;;;;;;;1831324;77;26821;-66
2022/11/24 09:02:23;;;;;;;1.00;1.00;;;;;;;;;;1829364;78;26787;-66
2022/11/24 09:04:51;;;;;;;0.80;0.80;;;;;;;;;;1847113;77;26740;-67
2022/11/24 09:07:18;;;;;;;0.80;0.80;;;;;;;;;;1831358;77;26278;-67
2022/11/24 09:09:46;;;;;;;0.80;0.80;;;;;;;;;;1828707;77;26759;-68
2022/11/24 09:12:13;;;;;;;0.82;0.82;;;;;;;;;;1822007;78;26821;-67
2022/11/24 09:14:40;;;;;;;0.80;0.80;;;;;;;;;;1798995;78;26746;-66
2022/11/24 09:17:08;;;;;;;0.90;0.90;;;;;;;;;;1801812;78;26782;-67
2022/11/24 09:19:35;;;;;;;0.80;0.80;;;;;;;;;;1803205;78;26551;-67
2022/11/24 09:22:02;;;;;;;0.90;0.90;;;;;;;;;;1806156;78;26269;-66
2022/11/24 09:24:29;;;;;;;0.90;0.90;;;;;;;;;;1810983;78;26273;-64
2022/11/24 09:26:57;;;;;;;0.80;0.80;;;;;;;;;;1802123;78;26817;-65
2022/11/24 09:29:24;;;;;;;0.90;0.90;;;;;;;;;;1789902;78;26772;-67
2022/11/24 09:31:51;;;;;;;0.90;0.90;;;;;;;;;;1783873;78;26749;-67
2022/11/24 09:34:19;;;;;;;0.80;0.80;;;;;;;;;;1800773;78;26297;-65
2022/11/24 09:36:46;;;;;;;1.00;1.00;;;;;;;;;;1789807;78;26405;-66
2022/11/24 09:39:13;;;;;;;0.80;0.80;;;;;;;;;;1773292;78;26345;-67
2022/11/24 09:41:45;;;;;;;0.82;0.82;;;;;;;;;;1781071;78;26776;-69
2022/11/24 09:44:20;;;;;;;0.75;0.75;;;;;;;;;;1792815;78;26294;-69
2022/11/24 09:46:49;;;;;;;0.80;0.80;;;;;;;;;;1791626;78;26670;-68
2022/11/24 09:49:18;;;;;;;0.90;0.90;;;;;;;;;;1799799;78;26883;-66
2022/11/24 09:51:49;;;;;;;0.90;0.90;;;;;;;;;;1801424;78;26297;-63
2022/11/24 09:54:17;;;;;;;0.80;0.80;;;;;;;;;;1747123;80;26345;-67
2022/11/24 09:56:46;;;;;;;0.78;0.78;;;;;;;;;;1764798;81;26333;-65
2022/11/24 09:59:14;;;;;;;0.72;0.72;;;;;;;;;;1770990;80;26820;-67
2022/11/24 10:01:43;;;;;;;0.70;0.70;;;;;;;;;;1784381;80;26967;-68
2022/11/24 10:04:11;;;;;;;0.75;0.75;;;;;;;;;;1761287;80;26342;-69
2022/11/24 10:06:40;;;;;;;1.05;0.90;;;;;;;;;;1754505;81;26274;-68
2022/11/24 10:09:24;;;;;;;0.70;0.70;;;;;;;;;;1768079;80;26755;-68
2022/11/24 10:11:55;;;;;;;0.80;0.80;;;;;;;;;;1751522;80;26313;-68
2022/11/24 10:14:39;;;;;;;1.00;1.00;;;;;;;;;;1760132;80;26512;-67
2022/11/24 10:17:11;;;;;;;0.80;0.80;;;;;;;;;;1765137;80;27463;-67
2022/11/24 10:19:49;;;;;;;0.70;0.70;;;;;;;;;;1762623;80;26290;-68
2022/11/24 10:22:21;;;;;;;0.80;0.80;;;;;;;;;;1762092;81;26384;-67
2022/11/24 10:24:50;;;;;;;0.78;0.78;;;;;;;;;;1778639;80;26792;-64
2022/11/24 10:27:18;;;;;;;0.70;0.70;;;;;;;;;;1758317;80;27482;-64
2022/11/24 10:29:48;;;;;;;0.80;0.80;;;;;;;;;;1753899;80;26269;-67
2022/11/24 10:32:17;;;;;;;0.70;0.70;;;;;;;;;;1774692;80;26390;-67
2022/11/24 10:34:45;;;;;;;0.80;0.80;;;;;;;;;;1768864;80;26268;-67
2022/11/24 10:37:30;;;;;;;0.70;0.70;;;;;;;;;;1753945;81;26269;-67
2022/11/24 10:40:05;;;;;;;0.72;0.72;;;;;;;;;;1754646;80;26308;-67
2022/11/24 10:42:35;;;;;;;0.70;0.70;;;;;;;;;;1763819;81;26308;-68
2022/11/24 10:45:03;;;;;;;0.80;0.80;;;;;;;;;;1765968;80;27373;-66
2022/11/24 10:47:31;;;;;;;0.70;0.70;;;;;;;;;;1759777;80;26368;-66
2022/11/24 10:50:00;;;;;;;0.57;0.57;;;;;;;;;;1766778;81;26315;-67
2022/11/24 10:52:29;;;;;;;0.65;0.65;;;;;;;;;;1760627;80;27080;-66
2022/11/24 10:54:58;;;;;;;0.70;0.70;;;;;;;;;;1750170;80;26289;-70
2022/11/24 10:57:30;;;;;;;0.72;0.72;;;;;;;;;;1742569;80;26237;-67
2022/11/24 10:59:57;;;;;;;0.62;0.62;;;;;;;;;;1749146;80;27101;-68
2022/11/24 11:02:29;;;;;;;0.75;0.75;;;;;;;;;;1746065;80;26267;-66
2022/11/24 11:04:56;;;;;;;0.55;0.55;;;;;;;;;;1751644;80;26801;-65
2022/11/24 11:07:25;;;;;;;0.60;0.60;;;;;;;;;;1745500;80;27276;-66
2022/11/24 11:09:54;;;;;;;0.60;0.60;;;;;;;;;;1752266;80;26962;-64
2022/11/24 11:12:26;;;;;;;0.70;0.70;;;;;;;;;;1728109;80;26297;-65
2022/11/24 11:14:51;;;;;;;0.60;0.60;;;;;;;;;;1747326;80;26338;-67
2022/11/24 11:17:26;;;;;;;0.70;0.70;;;;;;;;;;1749996;80;26251;-67
2022/11/24 11:19:55;;;;;;;0.60;0.60;;;;;;;;;;1751714;82;26432;-67
2022/11/24 11:22:24;;;;;;;0.60;0.60;;;;;;;;;;1743482;81;26240;-66
2022/11/24 11:24:53;;;;;;;0.53;0.53;;;;;;;;;;1745798;82;26329;-66
2022/11/24 11:27:21;;;;;;;0.60;0.60;;;;;;;;;;1725882;82;26291;-67
2022/11/24 11:29:49;;;;;;;0.47;0.47;;;;;;;;;;1751578;82;26259;-63
2022/11/24 11:32:23;;;;;;;0.50;0.50;;;;;;;;;;1751174;80;26291;-68
2022/11/24 11:34:51;;;;;;;0.50;0.50;;;;;;;;;;1752679;80;26324;-67
2022/11/24 11:37:19;;;;;;;0.50;0.50;;;;;;;;;;1751517;82;25670;-65
2022/11/24 11:39:48;;;;;;;0.42;0.42;;;;;;;;;;1756268;80;26240;-66
2022/11/24 11:42:32;;;;;;;0.40;0.40;;;;;;;;;;1764286;80;26283;-67
2022/11/24 11:45:04;;;;;;;0.40;0.40;;;;;;;;;;1756073;80;26362;-65
2022/11/24 11:47:39;;;;;;;0.55;0.55;;;;;;;;;;1756250;80;26302;-67
2022/11/24 11:50:14;;;;;;;0.50;0.50;;;;;;;;;;1747610;82;26752;-67
2022/11/24 11:52:49;;;;;;;0.40;0.40;;;;;;;;;;1765230;80;26374;-68
2022/11/24 11:55:24;;;;;;;0.50;0.50;;;;;;;;;;1758015;78;26871;-67
2022/11/24 11:57:58;;;;;;;0.50;0.50;;;;;;;;;;1740854;79;26291;-67
2022/11/24 12:00:26;;;;;;;0.35;0.35;;;;;;;;;;1763302;79;26802;-67
2022/11/24 12:02:55;;;;;;;0.60;0.60;;;;;;;;;;1773124;79;26398;-66
2022/11/24 12:05:26;;;;;;;0.50;0.50;;;;;;;;;;1763691;79;26293;-65
2022/11/24 12:07:55;;;;;;;0.47;0.47;;;;;;;;;;1782895;79;26809;-67
2022/11/24 12:10:27;;;;;;;0.50;0.50;;;;;;;;;;1756227;79;26892;-63
2022/11/24 12:12:58;;;;;;;0.42;0.42;;;;;;;;;;1777931;79;26853;-66
2022/11/24 12:15:27;;;;;;;0.50;0.50;;;;;;;;;;1778438;79;26294;-68
2022/11/24 12:17:58;;;;;;;0.50;0.50;;;;;;;;;;1763556;79;26339;-66
2022/11/24 12:20:39;;;;;;;0.50;0.50;;;;;;;;;;1773040;79;26379;-66
2022/11/24 12:23:10;;;;;;;0.50;0.50;;;;;;;;;;1773083;81;26390;-66
2022/11/24 12:25:41;;;;;;;0.40;0.40;;;;;;;;;;1774633;79;26309;-66
2022/11/24 12:28:10;;;;;;;0.40;0.40;;;;;;;;;;1789293;79;26675;-66
2022/11/24 12:30:39;;;;;;;0.57;0.57;;;;;;;;;;1755632;79;26232;-66
2022/11/24 12:33:10;;;;;;;0.40;0.40;;;;;;;;;;1783906;79;26357;-66
2022/11/24 12:35:45;;;;;;;0.50;0.50;;;;;;;;;;1770050;80;26294;-64
2022/11/24 12:38:29;;;;;;;0.35;0.35;;;;;;;;;;1781653;79;26294;-66
2022/11/24 12:41:04;;;;;;;0.40;0.40;;;;;;;;;;1734438;80;26301;-67
2022/11/24 12:43:35;;;;;;;0.42;0.42;;;;;;;;;;1794750;79;26342;-67
2022/11/24 12:46:10;;;;;;;0.50;0.50;;;;;;;;;;1800241;79;26357;-69
2022/11/24 12:48:39;;;;;;;0.40;0.40;;;;;;;;;;1769142;80;26676;-67
2022/11/24 12:51:07;;;;;;;0.30;0.30;;;;;;;;;;1781215;79;26894;-67
2022/11/24 12:53:37;;;;;;;0.50;0.50;;;;;;;;;;1747793;81;26724;-67
2022/11/24 12:56:06;;;;;;;0.35;0.35;;;;;;;;;;1757893;80;26396;-68
2022/11/24 12:58:44;;;;;;;0.40;0.40;;;;;;;;;;1786858;79;26375;-67
2022/11/24 13:01:32;;;;;;;0.40;0.40;;;;;;;;;;1767231;79;26294;-68
2022/11/24 13:04:12;;;;;;;0.50;0.50;;;;;;;;;;1782873;79;26349;-66
2022/11/24 13:06:44;;;;;;;0.40;0.40;;;;;;;;;;1753355;80;26942;-68
2022/11/24 13:09:13;;;;;;;0.40;0.40;;;;;;;;;;1781054;79;26302;-67
2022/11/24 13:11:41;;;;;;;0.50;0.50;;;;;;;;;;1779984;79;26868;-68
2022/11/24 13:14:13;;;;;;;0.40;0.40;;;;;;;;;;1781321;79;26778;-68
2022/11/24 13:17:00;;;;;;;0.50;0.50;;;;;;;;;;1780222;79;26326;-66
2022/11/24 13:19:35;;;;;;;0.40;0.40;;;;;;;;;;1779388;79;26750;-68
2022/11/24 13:22:04;;;;;;;0.30;0.30;;;;;;;;;;1777306;79;26360;-67
2022/11/24 13:24:34;;;;;;;0.30;0.30;;;;;;;;;;1787243;79;26298;-66
2022/11/24 13:27:15;;;;;;;0.37;0.37;;;;;;;;;;1801265;79;26268;-67
2022/11/24 13:29:43;;;;;;;0.33;0.33;;;;;;;;;;1798892;78;26327;-68
2022/11/24 13:32:13;;;;;;;0.40;0.40;;;;;;;;;;1786436;78;26546;-68
2022/11/24 13:34:42;;;;;;;0.47;0.47;;;;;;;;;;1798515;78;26499;-67
2022/11/24 13:37:19;;;;;;;0.30;0.30;;;;;;;;;;1801181;78;26265;-65
2022/11/24 13:39:51;;;;;;;0.40;0.40;;;;;;;;;;1800548;78;26271;-68
2022/11/24 13:42:19;;;;;;;0.42;0.42;;;;;;;;;;1800821;79;26361;-67
2022/11/24 13:44:53;;;;;;;0.33;0.33;;;;;;;;;;1803928;78;26329;-66
2022/11/24 13:47:31;;;;;;;0.37;0.37;;;;;;;;;;1792869;79;26379;-68
2022/11/24 13:49:59;;;;;;;0.40;0.40;;;;;;;;;;1800997;78;26296;-65
2022/11/24 13:52:34;;;;;;;0.35;0.35;;;;;;;;;;1804981;78;26300;-67
2022/11/24 13:55:06;;;;;;;0.30;0.30;;;;;;;;;;1805555;78;26299;-65
2022/11/24 13:57:34;;;;;;;0.40;0.40;;;;;;;;;;1778857;78;26748;-66
2022/11/24 14:00:02;;;;;;;0.35;0.35;;;;;;;;;;1790306;78;26288;-67
2022/11/24 14:02:29;;;;;;;0.40;0.40;;;;;;;;;;1794493;78;26287;-67
2022/11/24 14:04:58;;;;;;;0.30;0.30;;;;;;;;;;1780541;79;26310;-65
2022/11/24 14:07:25;;;;;;;0.40;0.40;;;;;;;;;;1797477;78;26830;-63
2022/11/24 14:09:53;;;;;;;0.30;0.30;;;;;;;;;;1796737;80;26346;-66
2022/11/24 14:12:21;;;;;;;0.30;0.30;;;;;;;;;;1787661;79;26280;-64
2022/11/24 14:14:50;;;;;;;0.40;0.40;;;;;;;;;;1801072;78;26326;-68
2022/11/24 14:17:18;;;;;;;0.40;0.40;;;;;;;;;;1807817;78;26311;-63
2022/11/24 14:19:47;;;;;;;0.40;0.40;;;;;;;;;;1797065;80;26387;-67
2022/11/24 14:22:16;;;;;;;0.40;0.40;;;;;;;;;;1785046;78;26271;-69
2022/11/24 14:24:45;;;;;;;0.50;0.50;;;;;;;;;;1781314;80;26300;-67
2022/11/24 14:27:16;;;;;;;0.40;0.40;;;;;;;;;;1795480;80;26362;-64
2022/11/24 14:29:57;;;;;;;0.42;0.42;;;;;;;;;;1779409;78;26383;-63
2022/11/24 14:32:25;;;;;;;0.40;0.40;;;;;;;;;;1796747;80;26313;-66
2022/11/24 14:34:53;;;;;;;0.47;0.47;;;;;;;;;;1781222;78;26349;-66
2022/11/24 14:37:20;;;;;;;0.33;0.33;;;;;;;;;;1797833;78;26756;-64
2022/11/24 14:39:48;;;;;;;0.30;0.30;;;;;;;;;;1793714;78;26280;-65
2022/11/24 14:42:20;;;;;;;0.30;0.30;;;;;;;;;;1786487;80;26303;-66
2022/11/24 14:44:58;;;;;;;0.30;0.30;;;;;;;;;;1797308;78;26350;-65
2022/11/24 14:47:27;;;;;;;0.40;0.40;;;;;;;;;;1789098;78;26256;-66
2022/11/24 14:49:55;;;;;;;0.40;0.40;;;;;;;;;;1792979;80;26268;-65
2022/11/24 14:52:23;;;;;;;0.40;0.40;;;;;;;;;;1794848;80;26288;-66
2022/11/24 14:55:08;;;;;;;;;;;;;;;;;;;;;